Time;durP1;ratioP1;P1;durP2;ratioP2;P2;SDS_P1;SDS_P2;PMS_P1;PMS_P2;Temp;Humidity;BMP_temperature;BMP_pressure;BME280_temperature;BME280_humidity;BME280_pressure;Samples;Min_cycle;Max_cycle;Signal;HPM_P1;HPM_P2
2022/10/22 00:00:14;;;;;;;36.78;23.17;;;;;;;6.59;73.31;100377.59;5053970;28;20032;-85
2022/10/22 00:02:40;;;;;;;45.72;23.80;;;;;;;6.72;74.19;100380.88;5052469;28;20540;-86
2022/10/22 00:05:06;;;;;;;37.10;23.58;;;;;;;6.62;74.49;100369.78;5051951;28;20025;-86
2022/10/22 00:07:32;;;;;;;37.28;23.83;;;;;;;6.79;74.25;100377.75;5052720;28;20404;-85
2022/10/22 00:09:57;;;;;;;41.45;23.88;;;;;;;7.06;72.22;100368.97;5052454;28;20120;-85
2022/10/22 00:12:23;;;;;;;36.05;20.63;;;;;;;7.05;72.14;100361.75;5052683;28;20483;-85
2022/10/22 00:14:49;;;;;;;33.88;22.27;;;;;;;7.06;72.69;100360.63;5052460;28;20067;-85
2022/10/22 00:17:15;;;;;;;35.45;24.92;;;;;;;6.90;72.76;100361.88;5052004;28;20475;-85
2022/10/22 00:19:40;;;;;;;35.35;21.80;;;;;;;6.98;72.91;100350.09;5051565;28;20032;-85
2022/10/22 00:22:07;;;;;;;35.63;22.25;;;;;;;7.12;72.47;100366.97;5052476;28;20148;-85
2022/10/22 00:24:34;;;;;;;33.75;21.52;;;;;;;7.35;71.67;100353.44;5052301;28;20051;-84
2022/10/22 00:27:00;;;;;;;42.83;21.75;;;;;;;7.48;70.22;100351.91;5052310;28;20065;-85
2022/10/22 00:29:25;;;;;;;37.20;23.15;;;;;;;7.52;70.15;100345.47;5052253;28;20116;-85
2022/10/22 00:31:51;;;;;;;34.17;22.23;;;;;;;7.69;68.46;100347.81;5051982;28;20044;-84
2022/10/22 00:34:20;;;;;;;31.13;19.63;;;;;;;7.77;68.63;100349.13;5051367;28;20017;-86
2022/10/22 00:36:46;;;;;;;36.88;22.70;;;;;;;7.56;68.96;100351.28;5052093;28;20108;-85
2022/10/22 00:39:15;;;;;;;36.80;22.40;;;;;;;7.26;71.06;100356.03;5052234;28;20513;-85
2022/10/22 00:41:44;;;;;;;45.65;23.23;;;;;;;6.98;72.02;100347.31;5051556;28;20406;-85
2022/10/22 00:44:47;;;;;;;37.88;23.00;;;;;;;6.89;72.61;100358.25;5051825;28;20414;-87
2022/10/22 00:47:14;;;;;;;38.92;22.33;;;;;;;6.64;73.60;100332.25;5053776;28;20037;-85
2022/10/22 00:49:40;;;;;;;38.47;23.98;;;;;;;6.39;75.17;100330.44;5054402;28;20036;-86
2022/10/22 00:52:06;;;;;;;47.15;23.80;;;;;;;6.68;73.52;100341.69;5055063;28;20032;-85
2022/10/22 00:54:32;;;;;;;37.85;22.67;;;;;;;6.56;73.62;100347.59;5055054;28;20028;-85
2022/10/22 00:56:58;;;;;;;41.40;21.52;;;;;;;6.87;72.50;100350.16;5072739;28;20024;-86
2022/10/22 00:59:24;;;;;;;35.72;20.08;;;;;;;6.93;71.35;100356.53;5055115;28;20111;-85
2022/10/22 01:01:51;;;;;;;36.33;21.90;;;;;;;6.97;70.42;100349.28;5053425;28;21044;-85
2022/10/22 01:04:18;;;;;;;39.40;22.38;;;;;;;6.74;70.94;100350.81;5072068;28;20379;-85
2022/10/22 01:06:44;;;;;;;35.05;22.50;;;;;;;6.15;73.27;100343.06;5072587;28;20055;-85
2022/10/22 01:09:30;;;;;;;38.95;24.13;;;;;;;5.68;75.83;100328.47;5072964;28;20044;-86
2022/10/22 01:12:02;;;;;;;34.95;22.77;;;;;;;5.66;76.56;100347.31;5054806;28;20029;-86
2022/10/22 01:15:18;;;;;;;35.30;22.15;;;;;;;5.60;77.62;100340.13;5053237;28;20400;-87
2022/10/22 01:17:58;;;;;;;37.45;22.35;;;;;;;5.79;77.53;100323.72;4966870;28;20118;-86
2022/10/22 01:20:50;;;;;;;38.78;22.55;;;;;;;5.74;79.10;100335.66;4989189;28;20066;-85
2022/10/22 01:23:22;;;;;;;41.78;25.30;;;;;;;5.88;78.65;100337.84;5034141;28;20123;-86
2022/10/22 01:26:16;;;;;;;40.28;24.05;;;;;;;5.61;79.36;100328.78;5054717;28;20036;-86
2022/10/22 01:29:10;;;;;;;36.47;23.10;;;;;;;5.60;80.06;100337.38;5054360;28;20486;-86
2022/10/22 01:31:43;;;;;;;42.92;23.60;;;;;;;5.82;79.30;100342.56;5053487;28;20024;-87
2022/10/22 01:34:10;;;;;;;41.67;23.38;;;;;;;5.92;78.04;100336.19;5054387;28;20624;-86
2022/10/22 01:36:37;;;;;;;33.70;21.15;;;;;;;6.06;77.04;100330.06;5053818;28;20016;-85
2022/10/22 01:39:04;;;;;;;37.20;24.00;;;;;;;5.74;78.11;100321.78;5054265;28;20048;-86
2022/10/22 01:41:30;;;;;;;37.22;23.80;;;;;;;5.45;79.38;100339.06;5054160;28;20029;-85
2022/10/22 01:43:55;;;;;;;39.20;23.65;;;;;;;5.63;79.14;100339.56;5054326;28;20024;-87
2022/10/22 01:46:24;;;;;;;36.08;23.50;;;;;;;5.68;79.27;100336.81;5053082;28;20041;-86
2022/10/22 01:48:58;;;;;;;34.38;22.83;;;;;;;5.66;79.23;100333.44;5053720;28;20447;-85
2022/10/22 01:51:42;;;;;;;33.85;22.23;;;;;;;5.73;78.95;100333.16;5053979;28;20020;-87
2022/10/22 01:54:10;;;;;;;39.97;23.13;;;;;;;5.95;77.93;100330.06;5054256;28;20028;-85
2022/10/22 01:57:03;;;;;;;34.08;23.08;;;;;;;6.27;75.97;100328.81;5053806;28;20112;-85
2022/10/22 01:59:52;;;;;;;37.38;21.13;;;;;;;6.05;76.06;100320.88;5053638;28;20027;-86
2022/10/22 02:02:42;;;;;;;46.05;22.30;;;;;;;6.24;75.37;100332.19;5052319;28;20039;-86
2022/10/22 02:05:21;;;;;;;36.92;21.58;;;;;;;6.20;74.99;100324.69;5053798;28;20115;-85
2022/10/22 02:08:07;;;;;;;41.10;22.50;;;;;;;6.31;74.62;100320.75;5070780;28;20040;-85
2022/10/22 02:10:37;;;;;;;31.55;20.83;;;;;;;6.07;74.57;100320.59;5070169;28;20032;-86
2022/10/22 02:13:07;;;;;;;36.22;21.67;;;;;;;5.87;74.95;100323.16;5070813;28;20024;-85
2022/10/22 02:15:35;;;;;;;35.67;21.17;;;;;;;6.07;74.68;100331.72;5053372;28;20028;-86
2022/10/22 02:18:03;;;;;;;37.63;20.90;;;;;;;6.15;73.64;100329.19;5052322;28;20028;-86
2022/10/22 02:20:31;;;;;;;32.70;20.85;;;;;;;5.33;76.33;100331.00;5053521;28;20119;-86
2022/10/22 02:22:59;;;;;;;40.83;22.70;;;;;;;5.18;78.39;100323.53;5053530;28;20555;-86
2022/10/22 02:25:29;;;;;;;43.97;23.08;;;;;;;5.47;77.61;100328.50;5053548;28;20483;-86
2022/10/22 02:28:19;;;;;;;38.00;21.75;;;;;;;5.83;76.11;100341.47;5053276;28;20024;-86
2022/10/22 02:30:50;;;;;;;43.28;21.63;;;;;;;5.43;76.48;100324.63;5053139;28;20143;-86
2022/10/22 02:33:23;;;;;;;34.83;22.10;;;;;;;5.03;78.60;100327.16;5052854;28;20036;-87
2022/10/22 02:35:50;;;;;;;38.42;22.13;;;;;;;5.27;78.41;100326.59;5071420;28;20028;-87
2022/10/22 02:38:17;;;;;;;35.65;22.92;;;;;;;5.22;78.45;100322.97;5053052;28;20029;-85
2022/10/22 02:40:42;;;;;;;42.78;24.67;;;;;;;4.95;81.35;100324.91;5052715;28;20486;-88
2022/10/22 02:43:08;;;;;;;38.35;24.33;;;;;;;4.99;81.12;100320.47;5052862;28;20059;-86
2022/10/22 02:45:34;;;;;;;46.78;26.05;;;;;;;5.42;79.17;100333.22;5070924;28;20053;-86
2022/10/22 02:48:00;;;;;;;41.53;26.40;;;;;;;5.66;78.22;100322.34;5051918;28;20024;-86
2022/10/22 02:50:25;;;;;;;40.30;25.13;;;;;;;5.79;76.46;100322.88;5053112;28;20024;-86
2022/10/22 02:52:51;;;;;;;35.15;23.85;;;;;;;5.99;75.91;100324.78;5052981;28;20032;-86
2022/10/22 02:55:16;;;;;;;39.78;24.50;;;;;;;5.96;74.50;100322.53;5052703;28;20052;-86
2022/10/22 02:57:42;;;;;;;36.97;22.63;;;;;;;5.67;76.02;100324.03;5052904;28;20070;-85
2022/10/22 03:00:09;;;;;;;40.00;24.40;;;;;;;5.61;76.55;100327.91;5053106;28;20036;-86
2022/10/22 03:02:35;;;;;;;37.90;23.95;;;;;;;5.03;78.79;100318.81;5052167;28;20054;-85
2022/10/22 03:05:01;;;;;;;37.65;22.95;;;;;;;5.06;78.63;100320.19;5053092;28;20025;-86
2022/10/22 03:07:26;;;;;;;40.28;22.67;;;;;;;5.22;78.71;100314.66;5052435;28;20506;-87
2022/10/22 03:09:52;;;;;;;39.90;22.33;;;;;;;5.45;78.57;100313.25;5052949;28;20032;-85
2022/10/22 03:12:17;;;;;;;37.10;21.08;;;;;;;5.66;77.21;100311.25;5050532;28;20092;-85
2022/10/22 03:14:43;;;;;;;32.38;20.73;;;;;;;5.73;77.02;100309.00;5034583;28;20032;-86
2022/10/22 03:17:08;;;;;;;33.53;19.00;;;;;;;5.84;76.42;100314.53;5052147;28;20502;-86
2022/10/22 03:19:34;;;;;;;35.42;23.15;;;;;;;5.90;75.64;100318.94;5050540;28;20055;-86
2022/10/22 03:22:12;;;;;;;33.42;20.95;;;;;;;5.97;74.79;100322.28;5067598;28;20028;-86
2022/10/22 03:24:41;;;;;;;35.10;19.10;;;;;;;6.07;74.84;100317.81;5067639;28;20056;-85
2022/10/22 03:27:07;;;;;;;28.92;18.73;;;;;;;6.16;74.77;100316.13;5054780;28;20067;-86
2022/10/22 03:29:36;;;;;;;26.02;18.38;;;;;;;6.13;74.36;100303.63;5056348;28;20109;-85
2022/10/22 03:32:02;;;;;;;31.08;19.45;;;;;;;6.23;73.41;100307.47;5055949;28;20025;-86
2022/10/22 03:34:27;;;;;;;29.17;19.80;;;;;;;6.38;73.36;100309.34;5056710;28;20027;-86
2022/10/22 03:36:53;;;;;;;33.03;21.67;;;;;;;6.50;73.23;100318.16;5056559;28;20399;-85
2022/10/22 03:39:20;;;;;;;39.47;23.73;;;;;;;6.57;73.26;100328.94;5056836;28;20460;-86
2022/10/22 03:41:48;;;;;;;48.33;29.30;;;;;;;6.32;74.25;100297.41;5056031;28;20031;-86
2022/10/22 03:44:15;;;;;;;37.95;26.65;;;;;;;6.11;74.95;100299.47;5056088;28;20032;-84
2022/10/22 03:46:41;;;;;;;34.47;22.15;;;;;;;6.18;75.64;100319.44;5055315;28;20029;-85
2022/10/22 03:49:06;;;;;;;37.53;20.77;;;;;;;5.50;78.01;100301.31;5074357;28;20487;-86
2022/10/22 03:51:32;;;;;;;33.95;20.95;;;;;;;5.65;78.19;100329.00;5055744;28;20024;-86
2022/10/22 03:53:57;;;;;;;33.53;20.95;;;;;;;5.61;78.45;100319.59;5056081;28;20036;-85
2022/10/22 03:56:23;;;;;;;38.35;21.95;;;;;;;5.10;80.43;100317.69;5056273;28;20032;-87
2022/10/22 03:58:48;;;;;;;36.63;23.10;;;;;;;5.07;81.53;100316.34;5056094;28;20032;-86
2022/10/22 04:01:14;;;;;;;38.97;23.90;;;;;;;4.99;81.26;100308.56;5055356;28;20032;-87
2022/10/22 04:03:40;;;;;;;45.58;25.67;;;;;;;5.28;80.25;100327.41;5055967;28;20042;-86
2022/10/22 04:06:08;;;;;;;41.03;24.67;;;;;;;5.56;78.55;100341.81;5073926;28;20113;-86
2022/10/22 04:08:34;;;;;;;40.72;24.33;;;;;;;5.46;77.60;100353.75;5050818;28;20036;-86
2022/10/22 04:11:00;;;;;;;35.17;23.00;;;;;;;5.31;78.70;100340.75;5052700;28;20025;-86
2022/10/22 04:13:26;;;;;;;37.60;22.48;;;;;;;4.97;78.93;100341.28;5058705;28;20039;-86
2022/10/22 04:15:51;;;;;;;32.13;22.05;;;;;;;4.94;79.99;100344.59;5073027;28;20083;-86
2022/10/22 04:18:22;;;;;;;47.42;28.63;;;;;;;4.80;79.82;100342.34;5055508;28;20031;-86
2022/10/22 04:20:47;;;;;;;119.03;61.90;;;;;;;4.44;79.87;100337.59;5055744;28;20029;-87
2022/10/22 04:23:13;;;;;;;101.38;60.70;;;;;;;4.42;80.18;100345.34;5056012;28;20035;-87
2022/10/22 04:25:39;;;;;;;88.22;44.80;;;;;;;4.27;80.14;100336.97;5053155;28;20025;-86
2022/10/22 04:28:08;;;;;;;47.53;26.90;;;;;;;4.32;80.07;100353.59;5053920;28;20097;-86
2022/10/22 04:30:35;;;;;;;43.15;24.65;;;;;;;4.42;80.36;100344.50;5055851;28;20407;-86
2022/10/22 04:33:01;;;;;;;46.42;25.67;;;;;;;4.59;79.03;100338.72;5055763;28;20035;-87
2022/10/22 04:35:27;;;;;;;44.50;25.52;;;;;;;4.82;78.03;100334.59;5055168;28;20410;-87
2022/10/22 04:37:53;;;;;;;46.72;25.33;;;;;;;5.00;76.60;100333.22;5051508;28;20111;-87
2022/10/22 04:40:19;;;;;;;54.30;26.35;;;;;;;5.15;75.83;100329.63;5053811;28;20040;-87
2022/10/22 04:42:44;;;;;;;49.83;24.02;;;;;;;5.12;75.53;100334.88;5050699;28;20024;-87
2022/10/22 04:45:10;;;;;;;52.08;27.95;;;;;;;5.03;76.59;100343.78;5035391;28;20056;-86
2022/10/22 04:47:35;;;;;;;50.38;25.13;;;;;;;4.86;77.21;100312.69;5051631;28;20036;-87
2022/10/22 04:50:01;;;;;;;51.15;26.15;;;;;;;5.23;77.13;100335.75;5055424;28;20101;-86
2022/10/22 04:52:26;;;;;;;45.67;25.92;;;;;;;5.02;77.09;100319.09;5070638;28;20028;-86
2022/10/22 04:54:51;;;;;;;35.35;23.38;;;;;;;4.70;78.79;100322.94;5047244;28;20465;-86
2022/10/22 04:57:17;;;;;;;43.85;24.80;;;;;;;5.14;77.52;100310.50;5064996;28;20041;-86
2022/10/22 04:59:42;;;;;;;51.50;25.80;;;;;;;5.12;76.91;100312.72;5045998;28;20032;-86
2022/10/22 05:02:08;;;;;;;45.22;24.52;;;;;;;5.30;76.22;100308.53;5044709;28;20058;-87
2022/10/22 05:04:33;;;;;;;40.72;25.95;;;;;;;5.55;75.04;100298.50;5050451;28;20025;-87
2022/10/22 05:06:59;;;;;;;40.88;24.88;;;;;;;5.40;75.06;100313.25;5042615;28;20411;-86
2022/10/22 05:09:24;;;;;;;49.50;25.50;;;;;;;5.26;75.19;100297.19;5046543;28;20125;-87
2022/10/22 05:11:51;;;;;;;49.30;28.90;;;;;;;5.23;75.89;100313.56;5049575;28;20052;-88
2022/10/22 05:14:20;;;;;;;61.55;36.70;;;;;;;5.51;75.46;100311.28;5046453;28;20029;-87
2022/10/22 05:16:46;;;;;;;175.15;125.38;;;;;;;5.50;75.34;100298.53;5032232;28;20020;-86
2022/10/22 05:19:22;;;;;;;182.38;128.00;;;;;;;5.50;74.79;100299.38;5050016;28;20021;-87
2022/10/22 05:21:49;;;;;;;117.72;83.57;;;;;;;5.47;74.35;100308.22;5050311;28;20017;-87
2022/10/22 05:24:14;;;;;;;78.15;53.60;;;;;;;5.44;74.66;100287.44;5045254;28;20115;-87
2022/10/22 05:26:40;;;;;;;72.38;41.67;;;;;;;5.74;73.83;100309.84;5036914;28;20182;-87
2022/10/22 05:29:06;;;;;;;58.70;34.95;;;;;;;5.02;77.60;100313.53;5045682;28;20033;-87
2022/10/22 05:31:32;;;;;;;60.58;33.20;;;;;;;4.92;78.79;100311.63;5052444;28;20125;-89
2022/10/22 05:33:57;;;;;;;57.53;31.02;;;;;;;5.32;78.00;100312.69;5050445;28;20085;-88
2022/10/22 05:36:23;;;;;;;46.67;26.75;;;;;;;5.23;77.65;100302.44;5052239;28;20031;-86
2022/10/22 05:38:49;;;;;;;50.05;27.92;;;;;;;4.72;80.48;100293.84;5049422;28;20487;-90
2022/10/22 05:41:17;;;;;;;48.58;27.27;;;;;;;4.66;81.64;100294.13;5041443;28;20087;-87
2022/10/22 05:43:43;;;;;;;64.25;28.48;;;;;;;5.20;80.50;100301.06;5067818;28;20028;-88
2022/10/22 05:46:17;;;;;;;43.92;26.88;;;;;;;5.58;78.54;100298.78;5046896;28;20045;-87
2022/10/22 05:48:43;;;;;;;46.38;25.02;;;;;;;5.62;77.57;100286.03;5038460;28;20052;-87
2022/10/22 05:51:12;;;;;;;54.97;27.80;;;;;;;6.03;76.72;100301.75;5051978;28;20067;-87
2022/10/22 05:53:40;;;;;;;49.85;28.05;;;;;;;6.27;75.88;100292.72;5071152;28;20103;-86
2022/10/22 05:56:15;;;;;;;50.72;28.75;;;;;;;6.62;74.66;100300.28;5051042;28;20026;-86
2022/10/22 05:58:42;;;;;;;49.85;29.63;;;;;;;7.05;73.35;100316.38;5049222;28;20379;-87
2022/10/22 06:01:14;;;;;;;51.90;27.67;;;;;;;6.92;73.42;100315.94;5061092;28;20443;-87
2022/10/22 06:03:41;;;;;;;53.53;32.35;;;;;;;6.39;75.67;100300.72;5060120;28;20114;-87
2022/10/22 06:06:18;;;;;;;51.22;29.70;;;;;;;6.34;76.77;100302.69;5060379;28;20040;-86
2022/10/22 06:08:49;;;;;;;47.30;28.70;;;;;;;6.62;76.15;100300.28;5038527;28;20031;-86
2022/10/22 06:11:16;;;;;;;47.83;25.85;;;;;;;6.81;76.25;100309.63;5045281;28;20025;-87
2022/10/22 06:13:43;;;;;;;43.08;23.90;;;;;;;6.84;75.96;100305.44;5044324;28;20055;-87
2022/10/22 06:16:09;;;;;;;41.00;24.48;;;;;;;7.07;74.93;100314.19;5053420;28;20498;-86
2022/10/22 06:18:35;;;;;;;37.72;23.70;;;;;;;6.99;76.61;100310.03;5053655;28;20029;-86
2022/10/22 06:21:06;;;;;;;35.88;24.27;;;;;;;7.18;75.88;100312.13;5052795;28;20056;-87
2022/10/22 06:23:31;;;;;;;43.15;24.88;;;;;;;7.10;76.24;100303.28;5071472;28;20024;-87
2022/10/22 06:25:58;;;;;;;38.35;23.85;;;;;;;7.25;75.76;100309.84;5071287;28;20024;-87
2022/10/22 06:28:23;;;;;;;40.55;24.95;;;;;;;7.57;75.72;100311.19;5049692;28;20033;-87
2022/10/22 06:30:49;;;;;;;41.33;22.52;;;;;;;7.64;75.22;100306.13;5039287;28;20028;-86
2022/10/22 06:33:14;;;;;;;35.53;21.27;;;;;;;7.45;75.27;100304.06;5052839;28;20024;-86
2022/10/22 06:35:40;;;;;;;30.27;18.30;;;;;;;7.37;74.61;100288.03;5052965;28;20029;-86
2022/10/22 06:38:05;;;;;;;30.58;17.80;;;;;;;7.33;74.43;100298.06;5071409;28;20099;-87
2022/10/22 06:40:32;;;;;;;32.55;18.33;;;;;;;7.73;74.40;100326.63;5036510;28;20060;-85
2022/10/22 06:43:01;;;;;;;36.78;17.08;;;;;;;7.84;73.19;100307.00;5052218;28;20388;-87
2022/10/22 06:45:26;;;;;;;23.52;14.35;;;;;;;7.98;73.10;100333.03;5049789;28;20056;-86
2022/10/22 06:47:52;;;;;;;26.52;15.63;;;;;;;7.99;72.64;100326.34;5049676;28;20028;-86
2022/10/22 06:50:18;;;;;;;21.83;14.38;;;;;;;8.39;71.79;100337.28;5050784;28;20600;-85
2022/10/22 06:52:44;;;;;;;25.30;14.45;;;;;;;8.74;70.42;100330.69;5050635;28;20032;-86
2022/10/22 06:55:09;;;;;;;18.75;13.27;;;;;;;8.96;69.48;100333.69;5048619;28;20371;-85
2022/10/22 06:57:35;;;;;;;32.63;18.10;;;;;;;9.24;69.18;100339.41;5050256;28;20016;-87
2022/10/22 07:00:00;;;;;;;31.35;15.45;;;;;;;9.33;68.53;100325.56;5050622;28;20036;-85
2022/10/22 07:02:26;;;;;;;34.42;15.63;;;;;;;9.47;67.49;100345.16;5068030;28;20032;-85
2022/10/22 07:04:51;;;;;;;20.55;14.35;;;;;;;9.29;68.33;100343.22;5067578;28;20029;-86
2022/10/22 07:07:17;;;;;;;25.20;14.57;;;;;;;9.52;67.50;100347.00;5067973;28;20525;-84
2022/10/22 07:09:44;;;;;;;20.60;13.27;;;;;;;9.41;67.37;100343.56;5046724;28;20024;-85
2022/10/22 07:12:11;;;;;;;30.60;14.45;;;;;;;9.55;66.41;100326.88;5068272;28;20115;-85
2022/10/22 07:14:37;;;;;;;22.25;14.15;;;;;;;9.86;65.33;100315.09;5067577;28;20017;-85
2022/10/22 07:17:02;;;;;;;20.50;13.60;;;;;;;10.27;64.67;100335.81;5067367;28;20055;-86
2022/10/22 07:19:28;;;;;;;22.30;13.05;;;;;;;10.03;64.07;100341.63;5048544;28;20043;-87
2022/10/22 07:21:53;;;;;;;24.92;14.18;;;;;;;10.19;64.34;100328.97;5037041;28;20025;-83
2022/10/22 07:24:19;;;;;;;23.40;12.82;;;;;;;10.53;62.73;100319.34;5064467;28;20036;-83
2022/10/22 07:26:44;;;;;;;24.60;16.17;;;;;;;10.49;61.90;100323.88;5065316;28;20029;-83
2022/10/22 07:29:10;;;;;;;18.00;13.20;;;;;;;10.70;62.17;100331.81;5064378;28;20412;-83
2022/10/22 07:31:35;;;;;;;19.15;13.65;;;;;;;10.87;60.20;100308.75;5053486;28;20450;-83
2022/10/22 07:34:01;;;;;;;22.42;13.68;;;;;;;10.58;60.84;100337.13;5035396;28;20482;-84
2022/10/22 07:36:26;;;;;;;25.23;14.60;;;;;;;10.94;61.38;100330.72;5031090;28;20412;-84
2022/10/22 07:38:55;;;;;;;20.70;13.60;;;;;;;11.30;59.03;100338.22;5041424;28;20435;-83
2022/10/22 07:41:20;;;;;;;17.60;12.57;;;;;;;11.43;58.61;100325.31;5059789;28;20032;-84
2022/10/22 07:43:46;;;;;;;15.60;11.45;;;;;;;11.23;58.12;100299.47;5046482;28;20028;-84
2022/10/22 07:46:11;;;;;;;22.27;12.07;;;;;;;11.51;57.37;100320.91;5047629;28;20056;-84
2022/10/22 07:48:37;;;;;;;20.27;12.02;;;;;;;11.82;57.16;100325.66;5044980;28;20029;-86
2022/10/22 07:51:04;;;;;;;21.05;12.68;;;;;;;11.79;57.03;100321.56;5064344;28;20495;-87
2022/10/22 07:53:30;;;;;;;18.25;12.73;;;;;;;11.89;56.82;100325.22;5051414;28;20147;-87
2022/10/22 07:55:56;;;;;;;19.60;12.10;;;;;;;11.92;56.67;100324.56;5050670;28;20070;-87
2022/10/22 07:58:22;;;;;;;19.02;12.70;;;;;;;11.75;57.11;100317.72;5048865;28;20059;-87
2022/10/22 08:00:49;;;;;;;18.23;12.35;;;;;;;12.22;56.81;100324.88;5046427;28;20483;-88
2022/10/22 08:03:16;;;;;;;19.45;13.02;;;;;;;11.79;56.86;100320.72;5037234;28;20036;-87
2022/10/22 08:05:43;;;;;;;29.48;14.75;;;;;;;11.99;57.64;100324.09;5043423;28;20111;-87
2022/10/22 08:08:09;;;;;;;15.70;12.48;;;;;;;12.44;56.06;100312.72;5045156;28;20071;-87
2022/10/22 08:10:35;;;;;;;29.15;17.15;;;;;;;12.66;55.29;100301.69;5039645;28;20519;-87
2022/10/22 08:13:01;;;;;;;50.70;16.42;;;;;;;12.95;54.82;100303.00;5067642;28;20059;-88
2022/10/22 08:15:26;;;;;;;28.85;16.70;;;;;;;12.90;54.16;100306.81;5070460;28;20020;-86
2022/10/22 08:17:52;;;;;;;37.75;17.60;;;;;;;13.09;53.64;100309.25;5043092;28;20055;-87
2022/10/22 08:20:18;;;;;;;20.10;15.63;;;;;;;13.13;52.90;100315.06;5050599;28;20044;-88
2022/10/22 08:22:44;;;;;;;21.45;15.68;;;;;;;13.26;52.44;100302.81;5056143;28;20075;-89
2022/10/22 08:25:10;;;;;;;25.42;16.67;;;;;;;13.49;52.38;100308.25;5047579;28;20048;-87
2022/10/22 08:27:37;;;;;;;25.35;16.40;;;;;;;13.58;51.84;100286.56;5046485;28;20029;-87
2022/10/22 08:30:04;;;;;;;27.88;16.38;;;;;;;13.59;51.46;100293.03;5047746;28;20021;-86
2022/10/22 08:32:30;;;;;;;25.98;17.70;;;;;;;13.69;50.90;100298.25;5049927;28;20032;-87
2022/10/22 08:34:55;;;;;;;47.22;31.42;;;;;;;13.78;50.37;100274.91;5053730;28;20044;-87
2022/10/22 08:37:21;;;;;;;29.42;16.67;;;;;;;14.06;49.92;100280.91;5052676;28;20020;-88
2022/10/22 08:39:46;;;;;;;23.40;16.17;;;;;;;14.11;50.05;100283.53;5047099;28;20036;-88
2022/10/22 08:42:24;;;;;;;26.25;15.65;;;;;;;14.23;50.25;100296.03;5040171;28;20031;-87
2022/10/22 08:45:06;;;;;;;26.13;15.13;;;;;;;14.16;50.18;100283.34;5047796;28;20048;-88
2022/10/22 08:47:48;;;;;;;20.42;15.02;;;;;;;14.23;49.77;100281.97;5047491;28;20028;-87
2022/10/22 08:50:21;;;;;;;21.00;13.98;;;;;;;14.19;49.32;100276.22;5048539;28;20034;-88
2022/10/22 08:52:52;;;;;;;20.20;15.02;;;;;;;14.25;48.88;100269.22;5043991;28;20481;-88
2022/10/22 08:55:22;;;;;;;21.65;15.43;;;;;;;14.44;48.83;100254.69;5058997;28;20025;-89
2022/10/22 08:57:55;;;;;;;19.55;14.57;;;;;;;14.67;49.33;100264.81;5046335;28;20470;-88
2022/10/22 09:00:34;;;;;;;24.75;15.38;;;;;;;14.88;47.85;100254.34;5038392;28;20037;-87
2022/10/22 09:03:26;;;;;;;19.95;14.52;;;;;;;14.86;47.57;100247.44;5070692;28;20519;-88
2022/10/22 09:06:09;;;;;;;26.13;16.27;;;;;;;15.04;48.28;100253.72;5068505;28;20028;-87
2022/10/22 09:08:36;;;;;;;16.20;13.25;;;;;;;15.24;47.96;100260.50;5043055;28;20036;-88
2022/10/22 09:11:28;;;;;;;22.13;15.15;;;;;;;15.12;47.81;100241.53;5052531;28;20035;-85
2022/10/22 09:13:56;;;;;;;19.27;13.13;;;;;;;15.33;47.53;100259.59;5054882;28;20063;-87
2022/10/22 09:16:54;;;;;;;19.50;14.20;;;;;;;15.32;47.29;100260.72;5054665;28;20036;-86
2022/10/22 09:19:43;;;;;;;32.08;19.45;;;;;;;15.16;47.95;100248.13;5045999;28;20028;-87
2022/10/22 09:22:14;;;;;;;28.10;15.35;;;;;;;15.33;47.03;100254.75;5057090;28;20033;-86
2022/10/22 09:24:45;;;;;;;22.70;14.20;;;;;;;15.32;47.08;100246.63;5063800;28;20028;-87
2022/10/22 09:27:19;;;;;;;27.52;12.77;;;;;;;15.15;46.40;100246.50;5043395;28;20037;-86
2022/10/22 09:29:46;;;;;;;19.33;12.50;;;;;;;15.19;46.07;100243.78;5059881;28;20461;-86
2022/10/22 09:32:13;;;;;;;23.38;12.77;;;;;;;15.59;45.35;100228.25;5049500;28;20412;-86
2022/10/22 09:34:39;;;;;;;17.58;12.38;;;;;;;15.56;45.60;100229.75;5037368;28;20446;-87
2022/10/22 09:37:08;;;;;;;19.58;13.43;;;;;;;15.50;44.97;100228.38;5053707;28;20024;-86
2022/10/22 09:39:37;;;;;;;23.98;14.40;;;;;;;15.55;45.47;100224.50;5054626;28;20052;-86
2022/10/22 09:42:03;;;;;;;26.70;17.52;;;;;;;15.53;45.44;100216.38;5042579;28;20747;-86
2022/10/22 09:44:33;;;;;;;31.38;17.95;;;;;;;15.78;45.04;100207.94;5053122;28;20033;-86
2022/10/22 09:46:58;;;;;;;47.13;25.65;;;;;;;15.98;44.88;100202.56;5047776;28;20052;-86
2022/10/22 09:49:28;;;;;;;30.42;19.08;;;;;;;16.08;44.86;100204.91;5046400;28;20035;-86
2022/10/22 09:51:59;;;;;;;24.20;12.95;;;;;;;16.02;43.90;100197.84;5050503;28;20505;-87
2022/10/22 09:54:30;;;;;;;22.63;13.18;;;;;;;16.02;43.85;100202.66;5040144;28;20541;-86
2022/10/22 09:57:04;;;;;;;19.55;12.20;;;;;;;16.12;43.36;100182.44;5067176;28;20044;-87
2022/10/22 09:59:32;;;;;;;14.93;11.25;;;;;;;15.90;43.61;100195.88;5049280;28;20422;-87
2022/10/22 10:02:02;;;;;;;24.20;12.95;;;;;;;15.97;44.02;100178.34;5057227;28;20510;-87
2022/10/22 10:04:32;;;;;;;17.90;11.82;;;;;;;16.07;43.74;100180.69;5036673;28;20366;-87
2022/10/22 10:06:58;;;;;;;30.60;13.10;;;;;;;16.21;43.67;100185.13;5047472;28;20035;-87
2022/10/22 10:09:25;;;;;;;23.95;14.07;;;;;;;16.49;44.57;100178.69;5038799;28;20057;-87
2022/10/22 10:12:13;;;;;;;23.50;13.77;;;;;;;16.52;43.49;100172.31;5063947;28;20402;-86
2022/10/22 10:14:57;;;;;;;23.23;13.18;;;;;;;16.41;43.48;100172.00;5036222;28;20028;-87
2022/10/22 10:17:45;;;;;;;26.90;13.77;;;;;;;16.75;42.75;100157.63;5052641;28;20467;-86
2022/10/22 10:20:33;;;;;;;19.42;14.25;;;;;;;16.82;43.35;100160.66;5037170;28;20407;-87
2022/10/22 10:23:21;;;;;;;29.75;14.93;;;;;;;16.86;43.07;100146.66;5055724;28;20051;-87
2022/10/22 10:26:13;;;;;;;22.75;14.73;;;;;;;17.22;42.28;100150.47;5058774;28;20024;-87
2022/10/22 10:29:28;;;;;;;26.80;13.60;;;;;;;17.44;41.68;100151.81;5049452;28;20027;-86
2022/10/22 10:32:35;;;;;;;25.05;13.18;;;;;;;17.58;41.85;100142.88;4976826;28;20169;-86
2022/10/22 10:35:36;;;;;;;18.08;12.82;;;;;;;17.69;41.64;100134.63;4954533;28;20575;-87
2022/10/22 10:38:07;;;;;;;26.60;13.48;;;;;;;17.67;41.67;100139.84;4969678;28;20027;-86
2022/10/22 10:40:49;;;;;;;25.63;12.88;;;;;;;17.71;41.34;100131.44;5028298;28;20032;-87
2022/10/22 10:43:17;;;;;;;19.35;13.38;;;;;;;17.57;42.19;100123.44;5062586;28;20066;-87
2022/10/22 10:46:06;;;;;;;24.40;13.65;;;;;;;17.51;41.53;100112.41;5043847;28;20056;-86
2022/10/22 10:48:59;;;;;;;25.45;13.43;;;;;;;17.64;41.67;100101.78;5050642;28;20125;-87
2022/10/22 10:51:54;;;;;;;28.15;13.00;;;;;;;17.88;41.35;100099.91;5049148;28;20040;-86
2022/10/22 10:54:37;;;;;;;24.73;13.48;;;;;;;18.00;40.67;100104.63;5030703;28;20227;-87
2022/10/22 10:57:18;;;;;;;24.85;12.65;;;;;;;17.70;41.00;100087.38;5046649;28;20036;-87
2022/10/22 11:00:08;;;;;;;28.23;13.90;;;;;;;17.81;40.57;100083.59;5062647;28;20102;-87
2022/10/22 11:02:52;;;;;;;;;;;;;;;18.04;40.40;100073.59;5036918;28;20025;-87
2022/10/22 11:11:58;;;;;;;20.15;12.60;;;;;;;17.98;40.59;100052.41;5062939;28;20041;-67
2022/10/22 11:14:37;;;;;;;17.80;11.00;;;;;;;17.84;40.65;100053.75;5035696;28;20052;-67
2022/10/22 11:17:11;;;;;;;20.85;10.65;;;;;;;17.96;40.56;100047.94;5052673;28;20024;-67
2022/10/22 11:19:44;;;;;;;19.63;10.98;;;;;;;18.13;39.98;100042.25;5070548;28;20090;-67
2022/10/22 11:22:23;;;;;;;27.42;11.27;;;;;;;18.36;39.53;100047.97;5070771;28;20024;-67
2022/10/22 11:24:58;;;;;;;22.58;11.60;;;;;;;18.34;39.86;100041.84;5070513;28;20090;-67
2022/10/22 11:27:38;;;;;;;15.18;11.68;;;;;;;18.37;39.14;100041.94;5068333;28;20025;-67
2022/10/22 11:30:15;;;;;;;17.30;11.30;;;;;;;18.08;38.96;100046.19;5061333;28;20127;-67
2022/10/22 11:32:44;;;;;;;20.40;11.43;;;;;;;17.96;39.92;100033.81;5070545;28;20457;-67
2022/10/22 11:35:23;;;;;;;16.97;10.67;;;;;;;18.47;39.19;100034.03;5054477;28;20024;-67